createdAt,value
2022-10-01T00:01:51.285Z,86.23
2022-10-01T00:04:19.265Z,86.33
2022-10-01T00:06:47.468Z,86.47
2022-10-01T00:09:16.079Z,86.63
2022-10-01T00:11:45.407Z,86.74
2022-10-01T00:14:13.477Z,86.80
2022-10-01T00:16:41.552Z,86.75
2022-10-01T00:19:13.301Z,86.78
2022-10-01T00:21:41.478Z,86.90
2022-10-01T00:24:12.864Z,86.92
2022-10-01T00:26:41.413Z,87.07
2022-10-01T00:29:13.620Z,87.17
2022-10-01T00:31:41.891Z,87.31
2022-10-01T00:34:11.152Z,87.41
2022-10-01T00:36:39.210Z,87.35
2022-10-01T00:39:07.282Z,87.53
2022-10-01T00:41:36.072Z,87.61
2022-10-01T00:44:20.483Z,87.54
2022-10-01T00:46:49.895Z,87.60
2022-10-01T00:49:20.169Z,87.66
2022-10-01T00:51:50.817Z,87.65
2022-10-01T00:54:24.094Z,87.68
2022-10-01T00:56:53.275Z,87.70
2022-10-01T00:59:21.837Z,87.67
2022-10-01T01:01:51.320Z,87.73
2022-10-01T01:04:19.532Z,87.75
2022-10-01T01:06:51.493Z,87.85
2022-10-01T01:09:19.696Z,87.87
2022-10-01T01:11:51.842Z,88.03
2022-10-01T01:14:24.089Z,87.97
2022-10-01T01:17:01.277Z,87.97
2022-10-01T01:19:41.207Z,88.17
2022-10-01T01:22:11.695Z,88.17
2022-10-01T01:24:48.614Z,88.12
2022-10-01T01:27:29.661Z,88.00
2022-10-01T01:30:03.737Z,87.96
2022-10-01T01:32:36.264Z,87.85
2022-10-01T01:35:05.680Z,87.77
2022-10-01T01:37:36.078Z,87.71
2022-10-01T01:40:06.738Z,87.55
2022-10-01T01:42:36.730Z,87.36
2022-10-01T01:45:09.922Z,87.24
2022-10-01T01:47:39.523Z,87.08
2022-10-01T01:50:08.555Z,87.13
2022-10-01T01:52:36.896Z,87.25
2022-10-01T01:55:07.435Z,87.44
2022-10-01T01:57:37.941Z,87.63
2022-10-01T02:00:08.713Z,87.73
2022-10-01T02:02:39.265Z,88.03
2022-10-01T02:05:10.573Z,88.14
2022-10-01T02:07:55.937Z,88.22
2022-10-01T02:10:34.591Z,88.27
2022-10-01T02:13:20.225Z,88.31
2022-10-01T02:15:59.699Z,88.38
2022-10-01T02:18:31.459Z,88.53
2022-10-01T02:21:05.373Z,88.54
2022-10-01T02:23:35.762Z,88.72
2022-10-01T02:26:08.371Z,88.79
2022-10-01T02:28:39.242Z,88.85
2022-10-01T02:31:09.150Z,88.95
2022-10-01T02:33:37.376Z,89.06
2022-10-01T02:36:07.606Z,89.01
2022-10-01T02:38:38.482Z,88.89
2022-10-01T02:41:09.158Z,88.72
2022-10-01T02:43:42.906Z,88.77
2022-10-01T02:46:15.813Z,88.61
2022-10-01T02:48:44.311Z,88.54
2022-10-01T02:51:25.999Z,88.24
2022-10-01T02:53:57.516Z,88.00
2022-10-01T02:56:48.342Z,87.73
2022-10-01T02:59:16.987Z,87.37
2022-10-01T03:01:47.097Z,87.07
2022-10-01T03:04:15.135Z,86.66
2022-10-01T03:06:43.051Z,86.38
2022-10-01T03:09:11.020Z,86.08
2022-10-01T03:11:39.092Z,85.83
2022-10-01T03:14:07.499Z,85.53
2022-10-01T03:16:35.476Z,85.43
2022-10-01T03:19:04.952Z,85.37
2022-10-01T03:21:33.175Z,85.40
2022-10-01T03:24:01.541Z,85.40
2022-10-01T03:26:29.631Z,85.36
2022-10-01T03:28:57.574Z,85.25
2022-10-01T03:31:25.569Z,85.23
2022-10-01T03:33:53.612Z,85.30
2022-10-01T03:36:22.911Z,85.24
2022-10-01T03:38:50.840Z,85.15
2022-10-01T03:41:18.830Z,85.22
2022-10-01T03:43:46.755Z,85.27
2022-10-01T03:46:14.979Z,85.33
2022-10-01T03:48:43.042Z,85.38
2022-10-01T03:51:11.053Z,85.54
2022-10-01T03:53:40.360Z,85.60
2022-10-01T03:56:08.440Z,85.68
2022-10-01T03:58:36.442Z,85.71
2022-10-01T04:01:04.367Z,85.82
2022-10-01T04:03:32.456Z,85.79
2022-10-01T04:06:00.406Z,85.70
2022-10-01T04:08:28.920Z,85.67
2022-10-01T04:10:58.400Z,85.56
2022-10-01T04:13:26.403Z,85.43
2022-10-01T04:15:54.403Z,85.45
2022-10-01T04:18:22.504Z,85.43
2022-10-01T04:20:50.516Z,85.34
2022-10-01T04:23:18.617Z,85.27
2022-10-01T04:25:46.692Z,85.27
2022-10-01T04:28:16.357Z,85.33
2022-10-01T04:30:46.958Z,85.33
2022-10-01T04:33:17.101Z,85.29
2022-10-01T04:35:45.915Z,85.31
2022-10-01T04:38:16.413Z,85.32
2022-10-01T04:40:44.549Z,85.31
2022-10-01T04:43:13.349Z,85.25
2022-10-01T04:45:42.602Z,85.18
2022-10-01T04:48:10.607Z,85.21
2022-10-01T04:50:38.781Z,85.20
2022-10-01T04:53:06.764Z,85.12
2022-10-01T04:55:35.001Z,85.14
2022-10-01T04:58:03.191Z,85.11
2022-10-01T05:00:31.216Z,85.07
2022-10-01T05:03:00.507Z,84.97
2022-10-01T05:05:29.227Z,84.93
2022-10-01T05:07:57.451Z,84.91
2022-10-01T05:10:26.237Z,84.87
2022-10-01T05:12:54.684Z,84.88
2022-10-01T05:15:22.676Z,84.84
2022-10-01T05:17:50.728Z,84.71
2022-10-01T05:20:22.086Z,84.52
2022-10-01T05:22:50.433Z,84.42
2022-10-01T05:25:19.171Z,84.32
2022-10-01T05:27:47.342Z,84.33
2022-10-01T05:30:20.095Z,84.21
2022-10-01T05:32:56.198Z,84.11
2022-10-01T05:35:25.999Z,84.09
2022-10-01T05:37:55.353Z,84.00
2022-10-01T05:40:27.525Z,83.99
2022-10-01T05:42:56.027Z,84.02
2022-10-01T05:45:24.268Z,84.02
2022-10-01T05:47:59.648Z,84.02
2022-10-01T05:50:31.229Z,84.03
2022-10-01T05:52:59.862Z,84.01
2022-10-01T05:55:34.704Z,84.01
2022-10-01T05:58:04.632Z,83.81
2022-10-01T06:00:33.316Z,83.70
2022-10-01T06:03:02.753Z,83.53
2022-10-01T06:05:33.459Z,83.51
2022-10-01T06:08:01.886Z,83.45
2022-10-01T06:10:30.315Z,83.29
2022-10-01T06:13:00.334Z,83.24
2022-10-01T06:15:28.787Z,83.16
2022-10-01T06:17:56.787Z,82.99
2022-10-01T06:20:24.845Z,82.92
2022-10-01T06:22:58.739Z,82.74
2022-10-01T06:25:28.388Z,82.73
2022-10-01T06:27:58.855Z,82.61
2022-10-01T06:30:27.981Z,82.46
2022-10-01T06:33:01.213Z,82.34
2022-10-01T06:35:29.217Z,82.24
2022-10-01T06:37:58.508Z,82.18
2022-10-01T06:40:26.556Z,82.24
2022-10-01T06:42:58.426Z,82.34
2022-10-01T06:45:27.802Z,82.34
2022-10-01T06:47:56.300Z,82.24
2022-10-01T06:50:24.889Z,82.21
2022-10-01T06:52:54.110Z,82.26
2022-10-01T06:55:25.618Z,82.26
2022-10-01T06:57:55.595Z,82.24
2022-10-01T07:00:24.145Z,82.23
2022-10-01T07:02:52.865Z,82.27
2022-10-01T07:05:21.029Z,82.44
2022-10-01T07:07:49.342Z,82.55
2022-10-01T07:10:20.866Z,82.61
2022-10-01T07:12:51.026Z,82.50
2022-10-01T07:15:22.642Z,82.35
2022-10-01T07:17:52.265Z,82.29
2022-10-01T07:20:21.432Z,82.22
2022-10-01T07:22:49.955Z,82.22
2022-10-01T07:25:18.035Z,82.13
2022-10-01T07:27:46.053Z,82.03
2022-10-01T07:30:15.634Z,82.01
2022-10-01T07:32:44.700Z,81.93
2022-10-01T07:35:12.836Z,81.93
2022-10-01T07:37:41.328Z,81.91
2022-10-01T07:40:10.223Z,81.66
2022-10-01T07:42:38.822Z,81.30
2022-10-01T07:45:08.082Z,81.11
2022-10-01T07:47:37.660Z,80.69
2022-10-01T07:50:07.347Z,80.40
2022-10-01T07:52:35.317Z,80.31
2022-10-01T07:55:03.376Z,80.43
2022-10-01T07:57:31.588Z,80.22
2022-10-01T07:59:59.885Z,80.26
2022-10-01T08:02:28.024Z,80.17
2022-10-01T08:05:15.275Z,80.22
2022-10-01T08:07:43.250Z,80.16
2022-10-01T08:10:11.349Z,80.00
2022-10-01T08:12:39.514Z,79.82
2022-10-01T08:15:10.287Z,79.70
2022-10-01T08:17:38.843Z,79.57
2022-10-01T08:20:10.707Z,79.49
2022-10-01T08:22:42.045Z,79.31
2022-10-01T08:25:11.031Z,79.17
2022-10-01T08:27:39.065Z,79.11
2022-10-01T08:30:08.362Z,79.10
2022-10-01T08:32:36.303Z,78.95
2022-10-01T08:35:05.063Z,78.61
2022-10-01T08:37:34.837Z,78.44
2022-10-01T08:40:03.170Z,78.34
2022-10-01T08:42:52.585Z,78.20
2022-10-01T08:45:24.921Z,78.03
2022-10-01T08:47:57.281Z,77.91
2022-10-01T08:50:30.241Z,77.59
2022-10-01T08:53:08.003Z,77.00
2022-10-01T08:55:37.455Z,76.49
2022-10-01T08:58:07.461Z,76.30
2022-10-01T09:00:37.127Z,77.33
2022-10-01T09:03:06.682Z,78.27
2022-10-01T09:05:41.723Z,78.84
2022-10-01T09:08:18.411Z,79.87
2022-10-01T09:10:48.382Z,80.13
2022-10-01T09:13:30.212Z,80.71
2022-10-01T09:16:01.143Z,81.03
2022-10-01T09:18:38.433Z,80.88
2022-10-01T09:21:13.566Z,81.20
2022-10-01T09:23:51.729Z,81.65
2022-10-01T09:26:23.551Z,81.86
2022-10-01T09:28:55.700Z,81.68
2022-10-01T09:31:30.180Z,82.06
2022-10-01T09:34:02.740Z,82.63
2022-10-01T09:36:36.121Z,82.63
2022-10-01T09:39:13.837Z,83.11
2022-10-01T09:41:41.821Z,83.37
2022-10-01T09:44:18.729Z,83.56
2022-10-01T09:46:47.429Z,83.88
2022-10-01T09:49:24.198Z,83.57
2022-10-01T09:51:55.411Z,84.33
2022-10-01T09:54:31.159Z,84.60
2022-10-01T09:57:02.654Z,84.69
2022-10-01T09:59:32.831Z,85.07
2022-10-01T10:02:02.513Z,85.12
2022-10-01T10:04:31.050Z,85.67
2022-10-01T10:07:03.934Z,86.20
2022-10-01T10:09:34.812Z,86.39
2022-10-01T10:12:03.489Z,87.12
2022-10-01T10:14:33.600Z,87.90
2022-10-01T10:17:05.679Z,88.24
2022-10-01T10:19:34.121Z,88.70
2022-10-01T10:22:11.943Z,89.29
2022-10-01T10:24:41.330Z,89.50
2022-10-01T10:27:24.922Z,89.86
2022-10-01T10:30:02.748Z,90.27
2022-10-01T10:32:30.928Z,90.59
2022-10-01T10:35:03.686Z,90.81
2022-10-01T10:37:34.256Z,91.07
2022-10-01T10:40:04.842Z,91.48
2022-10-01T10:42:33.359Z,91.51
2022-10-01T10:45:04.222Z,91.62
2022-10-01T10:47:33.224Z,91.83
2022-10-01T10:50:04.393Z,92.00
2022-10-01T10:52:36.327Z,92.20
2022-10-01T10:55:23.634Z,92.28
2022-10-01T10:57:57.266Z,92.34
2022-10-01T11:00:26.860Z,92.34
2022-10-01T11:02:57.341Z,92.30
2022-10-01T11:05:27.410Z,92.10
2022-10-01T11:07:58.386Z,92.12
2022-10-01T11:10:35.656Z,91.85
2022-10-01T11:13:21.252Z,92.01
2022-10-01T11:16:01.599Z,92.16
2022-10-01T11:18:51.939Z,92.12
2022-10-01T11:21:34.307Z,92.14
2022-10-01T11:24:11.491Z,92.13
2022-10-01T11:26:51.676Z,91.94
2022-10-01T11:29:31.699Z,92.01
2022-10-01T11:32:05.290Z,91.82
2022-10-01T11:35:09.839Z,91.85
2022-10-01T11:37:48.289Z,91.79
2022-10-01T11:40:20.563Z,91.60
2022-10-01T11:42:50.936Z,91.53
2022-10-01T11:45:22.078Z,91.11
2022-10-01T11:47:53.069Z,90.95
2022-10-01T11:50:25.139Z,90.65
2022-10-01T11:52:55.680Z,90.71
2022-10-01T11:55:43.711Z,90.46
2022-10-01T11:58:46.633Z,90.33
2022-10-01T12:01:14.980Z,90.41
2022-10-01T12:03:54.241Z,90.50
2022-10-01T12:06:27.528Z,90.84
2022-10-01T12:09:00.318Z,91.04
2022-10-01T12:11:32.952Z,91.38
2022-10-01T12:14:05.752Z,91.79
2022-10-01T12:16:42.256Z,92.08
2022-10-01T12:19:14.561Z,92.15
2022-10-01T12:21:44.853Z,92.40
2022-10-01T12:24:14.182Z,92.64
2022-10-01T12:26:50.412Z,92.80
2022-10-01T12:29:23.010Z,92.89
2022-10-01T12:31:55.937Z,92.97
2022-10-01T12:34:33.491Z,93.06
2022-10-01T12:37:10.331Z,93.13
2022-10-01T12:39:47.166Z,93.11
2022-10-01T12:42:31.613Z,92.99
2022-10-01T12:45:06.703Z,92.89
2022-10-01T12:47:43.133Z,92.68
2022-10-01T12:50:23.614Z,92.55
2022-10-01T12:53:01.554Z,92.48
2022-10-01T12:55:47.414Z,92.31
2022-10-01T12:58:22.015Z,92.37
2022-10-01T13:00:55.066Z,92.38
2022-10-01T13:03:48.382Z,92.46
2022-10-01T13:06:25.392Z,92.27
2022-10-01T13:09:04.661Z,92.40
2022-10-01T13:11:46.375Z,92.36
2022-10-01T13:14:17.383Z,92.25
2022-10-01T13:16:50.367Z,92.28
2022-10-01T13:19:21.550Z,92.08
2022-10-01T13:22:00.697Z,91.88
2022-10-01T13:24:34.158Z,91.65
2022-10-01T13:27:06.057Z,91.21
2022-10-01T13:29:48.520Z,91.11
2022-10-01T13:32:29.769Z,91.01
2022-10-01T13:34:58.872Z,90.95
2022-10-01T13:37:38.234Z,90.30
2022-10-01T13:40:22.861Z,89.77
2022-10-01T13:42:52.231Z,89.75
2022-10-01T13:45:31.940Z,89.53
2022-10-01T13:48:14.291Z,89.45
2022-10-01T13:50:43.063Z,88.97
2022-10-01T13:53:16.517Z,88.32
2022-10-01T13:55:46.713Z,87.82
2022-10-01T13:58:23.533Z,87.86
2022-10-01T14:00:53.084Z,87.87
2022-10-01T14:03:36.123Z,87.95
2022-10-01T14:06:06.066Z,87.78
2022-10-01T14:08:39.445Z,87.67
2022-10-01T14:11:28.869Z,87.75
2022-10-01T14:14:29.666Z,87.69
2022-10-01T14:16:58.064Z,87.61
2022-10-01T14:19:28.381Z,87.64
2022-10-01T14:22:18.717Z,87.65
2022-10-01T14:25:01.398Z,87.70
2022-10-01T14:27:35.215Z,87.52
2022-10-01T14:30:07.446Z,87.55
2022-10-01T14:32:48.151Z,87.54
2022-10-01T14:35:26.520Z,87.48
2022-10-01T14:38:00.215Z,87.41
2022-10-01T14:40:37.201Z,87.35
2022-10-01T14:43:20.570Z,87.19
2022-10-01T14:45:56.961Z,87.00
2022-10-01T14:48:25.632Z,86.93
2022-10-01T14:50:58.399Z,87.11
2022-10-01T14:53:28.374Z,87.13
2022-10-01T14:55:58.456Z,87.08
2022-10-01T14:58:29.763Z,87.24
2022-10-01T15:00:58.958Z,87.24
2022-10-01T15:03:27.058Z,87.29
2022-10-01T15:06:04.563Z,87.39
2022-10-01T15:08:40.393Z,87.50
2022-10-01T15:11:10.220Z,87.37
2022-10-01T15:13:40.456Z,87.37
2022-10-01T15:16:13.011Z,87.34
2022-10-01T15:18:43.952Z,87.03
2022-10-01T15:21:16.575Z,86.97
2022-10-01T15:23:44.525Z,87.00
2022-10-01T15:26:15.248Z,87.01
2022-10-01T15:28:44.432Z,86.97
2022-10-01T15:31:12.578Z,86.95
2022-10-01T15:36:36.457Z,86.70
2022-10-01T15:39:05.800Z,86.85
2022-10-01T15:41:34.803Z,87.01
2022-10-01T15:44:04.847Z,87.10
2022-10-01T15:46:35.412Z,87.09
2022-10-01T15:49:28.432Z,87.13
2022-10-01T15:52:16.988Z,87.23
2022-10-01T15:54:46.069Z,87.37
2022-10-01T15:57:20.139Z,87.42
2022-10-01T15:59:48.715Z,87.47
2022-10-01T16:02:20.816Z,87.54
2022-10-01T16:04:49.115Z,87.58
2022-10-01T16:07:23.495Z,87.58
2022-10-01T16:09:58.176Z,87.67
2022-10-01T16:12:28.556Z,87.72
2022-10-01T16:15:00.238Z,87.84
2022-10-01T16:17:34.858Z,88.04
2022-10-01T16:20:39.263Z,88.19
2022-10-01T16:23:35.663Z,88.43
2022-10-01T16:26:04.883Z,88.61
2022-10-01T16:28:34.406Z,88.80
2022-10-01T16:31:04.740Z,88.98
2022-10-01T16:33:32.799Z,89.11
2022-10-01T16:36:09.899Z,89.37
2022-10-01T16:38:39.180Z,89.46
2022-10-01T16:41:07.258Z,89.60
2022-10-01T16:43:35.184Z,89.72
2022-10-01T16:46:03.165Z,89.91
2022-10-01T16:48:31.134Z,90.01
2022-10-01T16:50:59.797Z,90.07
2022-10-01T16:53:27.875Z,90.25
2022-10-01T16:55:58.094Z,90.32
2022-10-01T16:58:26.874Z,90.27
2022-10-01T17:00:55.039Z,90.07
2022-10-01T17:03:24.274Z,89.89
2022-10-01T17:05:52.229Z,89.75
2022-10-01T17:08:20.173Z,89.63
2022-10-01T17:10:52.998Z,89.49
2022-10-01T17:13:22.297Z,89.33
2022-10-01T17:15:51.714Z,89.21
2022-10-01T17:18:20.182Z,89.19
2022-10-01T17:20:48.547Z,89.31
2022-10-01T17:23:18.082Z,89.39
2022-10-01T17:25:47.111Z,89.46
2022-10-01T17:28:16.779Z,89.52
2022-10-01T17:30:48.017Z,89.68
2022-10-01T17:33:19.081Z,89.76
2022-10-01T17:35:51.495Z,89.80
2022-10-01T17:38:19.782Z,89.82
2022-10-01T17:40:47.853Z,89.74
2022-10-01T17:43:17.313Z,89.64
2022-10-01T17:45:52.380Z,89.55
2022-10-01T17:48:21.933Z,89.27
2022-10-01T17:50:59.035Z,88.94
2022-10-01T17:53:32.462Z,88.68
2022-10-01T17:56:06.318Z,88.44
2022-10-01T17:58:34.292Z,88.25
2022-10-01T18:01:03.665Z,88.29
2022-10-01T18:03:31.611Z,88.50
2022-10-01T18:06:03.549Z,88.85
2022-10-01T18:08:51.259Z,89.17
2022-10-01T18:11:20.336Z,89.56
2022-10-01T18:13:48.590Z,89.79
2022-10-01T18:16:19.425Z,89.95
2022-10-01T18:21:35.761Z,90.26
2022-10-01T18:24:04.988Z,90.44
2022-10-01T18:26:33.945Z,90.58
2022-10-01T18:29:02.328Z,90.60
2022-10-01T18:31:34.553Z,90.68
2022-10-01T18:34:03.629Z,90.70
2022-10-01T18:36:41.453Z,90.69
2022-10-01T18:39:15.323Z,90.69
2022-10-01T18:41:43.952Z,90.76
2022-10-01T18:44:18.005Z,90.77
2022-10-01T18:46:58.324Z,90.80
2022-10-01T18:49:47.521Z,90.73
2022-10-01T18:52:19.563Z,90.64
2022-10-01T18:54:56.053Z,90.65
2022-10-01T18:57:33.199Z,90.64
2022-10-01T19:00:09.896Z,90.52
2022-10-01T19:02:53.392Z,90.45
2022-10-01T19:05:41.848Z,90.41
2022-10-01T19:08:20.808Z,90.33
2022-10-01T19:10:51.762Z,90.28
2022-10-01T19:13:23.872Z,90.26
2022-10-01T19:16:01.411Z,90.26
2022-10-01T19:18:50.468Z,90.21
2022-10-01T19:21:24.992Z,90.15
2022-10-01T19:24:07.352Z,90.17
2022-10-01T19:26:39.784Z,90.33
2022-10-01T19:29:12.293Z,90.45
2022-10-01T19:31:46.536Z,90.52
2022-10-01T19:34:19.089Z,90.62
2022-10-01T19:36:51.917Z,90.66
2022-10-01T19:39:21.260Z,90.78
2022-10-01T19:41:52.809Z,91.00
2022-10-01T19:44:25.514Z,91.17
2022-10-01T19:46:55.692Z,91.24
2022-10-01T19:49:30.515Z,91.46
2022-10-01T19:52:00.891Z,91.57
2022-10-01T19:54:32.111Z,91.67
2022-10-01T19:57:06.475Z,91.86
2022-10-01T19:59:34.444Z,91.96
2022-10-01T20:02:07.781Z,92.16
2022-10-01T20:04:39.079Z,92.37
2022-10-01T20:07:12.223Z,92.60
2022-10-01T20:09:45.385Z,92.74
2022-10-01T20:12:21.469Z,92.79
2022-10-01T20:15:13.424Z,92.87
2022-10-01T20:17:53.216Z,93.01
2022-10-01T20:20:25.237Z,93.09
2022-10-01T20:23:06.617Z,93.22
2022-10-01T20:25:41.271Z,93.42
2022-10-01T20:28:13.878Z,93.60
2022-10-01T20:30:50.742Z,93.78
2022-10-01T20:33:24.854Z,93.90
2022-10-01T20:35:59.994Z,94.02
2022-10-01T20:38:31.963Z,94.07
2022-10-01T20:41:03.985Z,94.10
2022-10-01T20:43:34.675Z,94.22
2022-10-01T20:46:07.070Z,94.25
2022-10-01T20:48:36.621Z,94.33
2022-10-01T20:51:08.585Z,94.32
2022-10-01T20:53:39.971Z,94.29
2022-10-01T20:56:15.628Z,94.42
2022-10-01T20:58:49.069Z,94.50
2022-10-01T21:01:20.405Z,94.45
2022-10-01T21:03:50.875Z,94.54
2022-10-01T21:06:25.478Z,94.61
2022-10-01T21:08:57.956Z,94.63
2022-10-01T21:11:30.491Z,94.72
2022-10-01T21:14:06.133Z,94.73
2022-10-01T21:16:56.585Z,94.82
2022-10-01T21:19:37.175Z,94.87
2022-10-01T21:22:17.420Z,94.93
2022-10-01T21:24:55.670Z,94.93
2022-10-01T21:27:38.860Z,94.93
2022-10-01T21:30:09.908Z,94.96
2022-10-01T21:32:56.837Z,95.00
2022-10-01T21:35:37.857Z,95.01
2022-10-01T21:38:12.154Z,95.00
2022-10-01T21:40:49.753Z,94.98
2022-10-01T21:43:26.799Z,94.99
2022-10-01T21:46:02.528Z,95.05
2022-10-01T21:48:41.428Z,95.03
2022-10-01T21:51:17.049Z,95.08
2022-10-01T21:54:03.913Z,95.10
2022-10-01T21:56:43.770Z,95.07
2022-10-01T21:59:20.539Z,95.14
2022-10-01T22:01:56.142Z,95.14
2022-10-01T22:04:32.041Z,95.19
2022-10-01T22:07:04.462Z,95.28
2022-10-01T22:09:34.682Z,95.26
2022-10-01T22:12:03.577Z,95.29
2022-10-01T22:14:31.942Z,95.32
2022-10-01T22:20:00.056Z,95.32
2022-10-01T22:22:31.291Z,95.37
2022-10-01T22:25:01.296Z,95.42
2022-10-01T22:27:34.126Z,95.38
2022-10-01T22:30:07.931Z,95.40
2022-10-01T22:32:40.675Z,95.42
2022-10-01T22:35:13.623Z,95.46
2022-10-01T22:37:45.349Z,95.52
2022-10-01T22:40:18.002Z,95.52
2022-10-01T22:42:51.236Z,95.46
2022-10-01T22:45:19.559Z,95.53
2022-10-01T22:47:59.717Z,95.56
2022-10-01T22:50:35.663Z,95.50
2022-10-01T22:53:13.612Z,95.54
2022-10-01T22:55:49.168Z,95.60
2022-10-01T22:58:36.549Z,95.58
2022-10-01T23:01:11.462Z,95.58
2022-10-01T23:03:50.640Z,95.65
2022-10-01T23:06:25.903Z,95.59
2022-10-01T23:09:01.661Z,95.66
2022-10-01T23:11:35.922Z,95.61
2022-10-01T23:14:09.483Z,95.64
2022-10-01T23:16:44.929Z,95.66
2022-10-01T23:19:26.553Z,95.68
2022-10-01T23:22:01.937Z,95.71
2022-10-01T23:24:43.088Z,95.77
2022-10-01T23:27:21.638Z,95.83
2022-10-01T23:29:59.812Z,95.92
2022-10-01T23:32:42.535Z,95.97
2022-10-01T23:35:14.420Z,95.99
2022-10-01T23:37:58.401Z,95.96
2022-10-01T23:40:29.424Z,95.95
2022-10-01T23:43:03.335Z,95.98
2022-10-01T23:45:34.976Z,95.90
2022-10-01T23:48:06.078Z,95.91
2022-10-01T23:50:37.853Z,95.86
2022-10-01T23:53:13.660Z,95.87
2022-10-01T23:56:08.557Z,95.81
2022-10-01T23:58:43.732Z,95.80
